sensor_id;sensor_type;location;lat;lon;timestamp;P1;durP1;ratioP1;P2;durP2;ratioP2
16965;SDS011;8599;47.852;12.070;2023-06-22T00:00:52;15.65;;;6.57;;
16965;SDS011;8599;47.852;12.070;2023-06-22T00:03:20;14.10;;;6.55;;
16965;SDS011;8599;47.852;12.070;2023-06-22T00:05:49;13.82;;;6.80;;
16965;SDS011;8599;47.852;12.070;2023-06-22T00:08:16;14.23;;;7.20;;
16965;SDS011;8599;47.852;12.070;2023-06-22T00:10:44;19.50;;;6.93;;
16965;SDS011;8599;47.852;12.070;2023-06-22T00:13:12;18.42;;;6.80;;
16965;SDS011;8599;47.852;12.070;2023-06-22T00:15:41;21.05;;;7.15;;
16965;SDS011;8599;47.852;12.070;2023-06-22T00:18:08;17.60;;;6.53;;
16965;SDS011;8599;47.852;12.070;2023-06-22T00:20:36;18.85;;;7.57;;
16965;SDS011;8599;47.852;12.070;2023-06-22T00:23:03;11.45;;;6.63;;
16965;SDS011;8599;47.852;12.070;2023-06-22T00:25:31;15.93;;;7.25;;
16965;SDS011;8599;47.852;12.070;2023-06-22T00:27:58;13.60;;;7.60;;
16965;SDS011;8599;47.852;12.070;2023-06-22T00:30:25;15.43;;;6.40;;
16965;SDS011;8599;47.852;12.070;2023-06-22T00:32:53;15.43;;;6.90;;
16965;SDS011;8599;47.852;12.070;2023-06-22T00:35:19;23.67;;;7.50;;
16965;SDS011;8599;47.852;12.070;2023-06-22T00:37:47;13.55;;;6.15;;
16965;SDS011;8599;47.852;12.070;2023-06-22T00:40:13;22.70;;;6.47;;
16965;SDS011;8599;47.852;12.070;2023-06-22T00:42:41;11.90;;;6.88;;
16965;SDS011;8599;47.852;12.070;2023-06-22T00:45:08;13.55;;;6.50;;
16965;SDS011;8599;47.852;12.070;2023-06-22T00:47:35;17.73;;;6.28;;
16965;SDS011;8599;47.852;12.070;2023-06-22T00:50:05;14.73;;;6.95;;
16965;SDS011;8599;47.852;12.070;2023-06-22T00:52:33;12.82;;;6.70;;
16965;SDS011;8599;47.852;12.070;2023-06-22T00:55:00;14.82;;;6.88;;
16965;SDS011;8599;47.852;12.070;2023-06-22T00:57:28;14.73;;;6.72;;
16965;SDS011;8599;47.852;12.070;2023-06-22T00:59:56;19.25;;;6.70;;
16965;SDS011;8599;47.852;12.070;2023-06-22T01:02:22;15.38;;;6.95;;
16965;SDS011;8599;47.852;12.070;2023-06-22T01:04:49;12.05;;;6.20;;
16965;SDS011;8599;47.852;12.070;2023-06-22T01:07:20;17.63;;;6.57;;
16965;SDS011;8599;47.852;12.070;2023-06-22T01:09:57;15.80;;;7.40;;
16965;SDS011;8599;47.852;12.070;2023-06-22T01:12:30;20.15;;;7.20;;
16965;SDS011;8599;47.852;12.070;2023-06-22T01:15:02;24.77;;;7.45;;
16965;SDS011;8599;47.852;12.070;2023-06-22T01:17:33;14.38;;;6.53;;
16965;SDS011;8599;47.852;12.070;2023-06-22T01:20:01;22.58;;;7.05;;
16965;SDS011;8599;47.852;12.070;2023-06-22T01:22:33;18.13;;;6.72;;
16965;SDS011;8599;47.852;12.070;2023-06-22T01:25:13;18.77;;;7.40;;
16965;SDS011;8599;47.852;12.070;2023-06-22T01:27:47;13.63;;;6.03;;
16965;SDS011;8599;47.852;12.070;2023-06-22T01:30:20;16.05;;;5.57;;
16965;SDS011;8599;47.852;12.070;2023-06-22T01:32:50;11.43;;;5.50;;
16965;SDS011;8599;47.852;12.070;2023-06-22T01:35:20;13.02;;;5.40;;
16965;SDS011;8599;47.852;12.070;2023-06-22T01:37:48;10.77;;;5.15;;
16965;SDS011;8599;47.852;12.070;2023-06-22T01:40:16;9.45;;;5.57;;
16965;SDS011;8599;47.852;12.070;2023-06-22T01:42:44;18.02;;;5.80;;
16965;SDS011;8599;47.852;12.070;2023-06-22T01:45:11;11.43;;;5.50;;
16965;SDS011;8599;47.852;12.070;2023-06-22T01:47:40;15.95;;;7.25;;
16965;SDS011;8599;47.852;12.070;2023-06-22T01:50:08;20.90;;;5.93;;
16965;SDS011;8599;47.852;12.070;2023-06-22T01:52:35;14.13;;;6.15;;
16965;SDS011;8599;47.852;12.070;2023-06-22T01:55:02;15.50;;;6.22;;
16965;SDS011;8599;47.852;12.070;2023-06-22T01:57:31;20.02;;;5.60;;
16965;SDS011;8599;47.852;12.070;2023-06-22T01:59:59;13.43;;;6.60;;
16965;SDS011;8599;47.852;12.070;2023-06-22T02:02:29;9.65;;;5.90;;
16965;SDS011;8599;47.852;12.070;2023-06-22T02:05:02;9.43;;;5.13;;
16965;SDS011;8599;47.852;12.070;2023-06-22T02:07:33;10.65;;;4.78;;
16965;SDS011;8599;47.852;12.070;2023-06-22T02:10:05;12.45;;;5.88;;
16965;SDS011;8599;47.852;12.070;2023-06-22T02:12:34;15.10;;;5.75;;
16965;SDS011;8599;47.852;12.070;2023-06-22T02:15:02;11.52;;;4.80;;
16965;SDS011;8599;47.852;12.070;2023-06-22T02:17:29;18.10;;;5.03;;
16965;SDS011;8599;47.852;12.070;2023-06-22T02:19:58;11.27;;;4.72;;
16965;SDS011;8599;47.852;12.070;2023-06-22T02:22:26;14.98;;;4.78;;
16965;SDS011;8599;47.852;12.070;2023-06-22T02:24:53;12.48;;;5.35;;
16965;SDS011;8599;47.852;12.070;2023-06-22T02:27:19;10.90;;;4.50;;
16965;SDS011;8599;47.852;12.070;2023-06-22T02:29:46;10.88;;;5.03;;
16965;SDS011;8599;47.852;12.070;2023-06-22T02:32:13;8.75;;;4.20;;
16965;SDS011;8599;47.852;12.070;2023-06-22T02:34:40;13.48;;;4.95;;
16965;SDS011;8599;47.852;12.070;2023-06-22T02:37:07;8.63;;;4.78;;
16965;SDS011;8599;47.852;12.070;2023-06-22T02:39:39;7.15;;;4.80;;
16965;SDS011;8599;47.852;12.070;2023-06-22T02:42:05;12.25;;;5.28;;
16965;SDS011;8599;47.852;12.070;2023-06-22T02:44:32;9.48;;;4.78;;
16965;SDS011;8599;47.852;12.070;2023-06-22T02:46:59;11.93;;;4.93;;
16965;SDS011;8599;47.852;12.070;2023-06-22T02:49:26;9.20;;;4.78;;
16965;SDS011;8599;47.852;12.070;2023-06-22T02:51:53;11.18;;;5.55;;
16965;SDS011;8599;47.852;12.070;2023-06-22T02:54:20;11.93;;;4.72;;
16965;SDS011;8599;47.852;12.070;2023-06-22T02:56:48;16.80;;;6.28;;
16965;SDS011;8599;47.852;12.070;2023-06-22T02:59:15;13.68;;;6.13;;
16965;SDS011;8599;47.852;12.070;2023-06-22T03:01:42;16.40;;;5.95;;
16965;SDS011;8599;47.852;12.070;2023-06-22T03:04:09;14.88;;;5.00;;
16965;SDS011;8599;47.852;12.070;2023-06-22T03:06:36;10.27;;;5.28;;
16965;SDS011;8599;47.852;12.070;2023-06-22T03:09:05;13.63;;;5.38;;
16965;SDS011;8599;47.852;12.070;2023-06-22T03:11:33;10.23;;;5.68;;
16965;SDS011;8599;47.852;12.070;2023-06-22T03:14:01;10.18;;;5.22;;
16965;SDS011;8599;47.852;12.070;2023-06-22T03:16:28;13.13;;;5.63;;
16965;SDS011;8599;47.852;12.070;2023-06-22T03:18:55;9.15;;;5.47;;
16965;SDS011;8599;47.852;12.070;2023-06-22T03:21:22;10.70;;;5.15;;
16965;SDS011;8599;47.852;12.070;2023-06-22T03:23:49;15.40;;;6.00;;
16965;SDS011;8599;47.852;12.070;2023-06-22T03:26:16;9.38;;;5.00;;
16965;SDS011;8599;47.852;12.070;2023-06-22T03:28:43;9.63;;;4.97;;
16965;SDS011;8599;47.852;12.070;2023-06-22T03:31:12;9.27;;;5.18;;
16965;SDS011;8599;47.852;12.070;2023-06-22T03:33:38;11.68;;;4.95;;
16965;SDS011;8599;47.852;12.070;2023-06-22T03:36:05;8.87;;;4.97;;
16965;SDS011;8599;47.852;12.070;2023-06-22T03:38:32;12.57;;;5.97;;
16965;SDS011;8599;47.852;12.070;2023-06-22T03:40:59;9.30;;;5.75;;
16965;SDS011;8599;47.852;12.070;2023-06-22T03:43:26;10.73;;;4.80;;
16965;SDS011;8599;47.852;12.070;2023-06-22T03:45:53;10.45;;;5.20;;
16965;SDS011;8599;47.852;12.070;2023-06-22T03:48:21;7.03;;;4.88;;
16965;SDS011;8599;47.852;12.070;2023-06-22T03:50:48;8.32;;;4.80;;
16965;SDS011;8599;47.852;12.070;2023-06-22T03:53:14;9.85;;;5.22;;
16965;SDS011;8599;47.852;12.070;2023-06-22T03:55:47;12.10;;;5.00;;
16965;SDS011;8599;47.852;12.070;2023-06-22T03:58:15;9.27;;;5.20;;
16965;SDS011;8599;47.852;12.070;2023-06-22T04:00:43;14.20;;;5.60;;
16965;SDS011;8599;47.852;12.070;2023-06-22T04:03:10;13.27;;;6.13;;
16965;SDS011;8599;47.852;12.070;2023-06-22T04:05:39;13.15;;;6.38;;
16965;SDS011;8599;47.852;12.070;2023-06-22T04:08:06;10.80;;;5.90;;
16965;SDS011;8599;47.852;12.070;2023-06-22T04:10:33;8.98;;;5.53;;
16965;SDS011;8599;47.852;12.070;2023-06-22T04:13:00;13.88;;;6.00;;
16965;SDS011;8599;47.852;12.070;2023-06-22T04:15:27;10.52;;;5.57;;
16965;SDS011;8599;47.852;12.070;2023-06-22T04:17:54;10.77;;;5.72;;
16965;SDS011;8599;47.852;12.070;2023-06-22T04:20:21;15.27;;;6.95;;
16965;SDS011;8599;47.852;12.070;2023-06-22T04:22:51;12.50;;;5.90;;
16965;SDS011;8599;47.852;12.070;2023-06-22T04:25:19;9.45;;;6.15;;
16965;SDS011;8599;47.852;12.070;2023-06-22T04:27:46;15.20;;;6.05;;
16965;SDS011;8599;47.852;12.070;2023-06-22T04:30:13;17.50;;;7.05;;
16965;SDS011;8599;47.852;12.070;2023-06-22T04:32:41;13.80;;;6.18;;
16965;SDS011;8599;47.852;12.070;2023-06-22T04:35:08;15.27;;;6.50;;
16965;SDS011;8599;47.852;12.070;2023-06-22T04:37:35;13.77;;;6.18;;
16965;SDS011;8599;47.852;12.070;2023-06-22T04:40:04;11.07;;;5.72;;
16965;SDS011;8599;47.852;12.070;2023-06-22T04:42:33;9.57;;;6.45;;
16965;SDS011;8599;47.852;12.070;2023-06-22T04:45:00;13.70;;;6.55;;
16965;SDS011;8599;47.852;12.070;2023-06-22T04:47:27;12.27;;;6.07;;
16965;SDS011;8599;47.852;12.070;2023-06-22T04:49:54;16.67;;;6.13;;
16965;SDS011;8599;47.852;12.070;2023-06-22T04:52:24;17.58;;;6.50;;
16965;SDS011;8599;47.852;12.070;2023-06-22T04:54:50;14.18;;;7.00;;
16965;SDS011;8599;47.852;12.070;2023-06-22T04:57:22;21.92;;;6.95;;
16965;SDS011;8599;47.852;12.070;2023-06-22T04:59:55;20.73;;;8.32;;
16965;SDS011;8599;47.852;12.070;2023-06-22T05:02:22;10.85;;;5.88;;
16965;SDS011;8599;47.852;12.070;2023-06-22T05:04:57;23.20;;;8.25;;
16965;SDS011;8599;47.852;12.070;2023-06-22T05:07:24;18.08;;;7.63;;
16965;SDS011;8599;47.852;12.070;2023-06-22T05:09:51;17.45;;;7.45;;
16965;SDS011;8599;47.852;12.070;2023-06-22T05:12:18;15.43;;;6.57;;
16965;SDS011;8599;47.852;12.070;2023-06-22T05:14:46;17.30;;;7.55;;
16965;SDS011;8599;47.852;12.070;2023-06-22T05:17:13;18.33;;;6.80;;
16965;SDS011;8599;47.852;12.070;2023-06-22T05:19:44;19.85;;;7.47;;
16965;SDS011;8599;47.852;12.070;2023-06-22T05:22:14;20.95;;;7.53;;
16965;SDS011;8599;47.852;12.070;2023-06-22T05:24:42;28.90;;;8.18;;
16965;SDS011;8599;47.852;12.070;2023-06-22T05:27:09;10.95;;;6.88;;
16965;SDS011;8599;47.852;12.070;2023-06-22T05:29:36;21.60;;;6.95;;
16965;SDS011;8599;47.852;12.070;2023-06-22T05:32:04;23.90;;;6.50;;
16965;SDS011;8599;47.852;12.070;2023-06-22T05:34:32;18.92;;;6.30;;
16965;SDS011;8599;47.852;12.070;2023-06-22T05:36:59;12.48;;;6.63;;
16965;SDS011;8599;47.852;12.070;2023-06-22T05:39:26;18.00;;;6.38;;
16965;SDS011;8599;47.852;12.070;2023-06-22T05:41:52;19.63;;;7.20;;
16965;SDS011;8599;47.852;12.070;2023-06-22T05:44:19;23.00;;;7.00;;
16965;SDS011;8599;47.852;12.070;2023-06-22T05:46:46;14.63;;;7.13;;
16965;SDS011;8599;47.852;12.070;2023-06-22T05:49:15;23.73;;;7.05;;
16965;SDS011;8599;47.852;12.070;2023-06-22T05:51:42;14.00;;;6.03;;
16965;SDS011;8599;47.852;12.070;2023-06-22T05:54:09;18.25;;;7.00;;
16965;SDS011;8599;47.852;12.070;2023-06-22T05:56:38;18.60;;;6.72;;
16965;SDS011;8599;47.852;12.070;2023-06-22T05:59:05;12.23;;;6.90;;
16965;SDS011;8599;47.852;12.070;2023-06-22T06:01:32;13.15;;;6.43;;
16965;SDS011;8599;47.852;12.070;2023-06-22T06:04:01;23.10;;;6.00;;
16965;SDS011;8599;47.852;12.070;2023-06-22T06:06:30;15.38;;;6.13;;
16965;SDS011;8599;47.852;12.070;2023-06-22T06:08:57;14.55;;;6.72;;
16965;SDS011;8599;47.852;12.070;2023-06-22T06:11:24;11.23;;;5.82;;
16965;SDS011;8599;47.852;12.070;2023-06-22T06:13:52;16.58;;;5.78;;
16965;SDS011;8599;47.852;12.070;2023-06-22T06:16:19;12.05;;;5.80;;
16965;SDS011;8599;47.852;12.070;2023-06-22T06:18:46;14.38;;;6.22;;
16965;SDS011;8599;47.852;12.070;2023-06-22T06:21:13;17.85;;;7.05;;
16965;SDS011;8599;47.852;12.070;2023-06-22T06:23:41;13.75;;;6.03;;
16965;SDS011;8599;47.852;12.070;2023-06-22T06:26:08;15.20;;;7.40;;
16965;SDS011;8599;47.852;12.070;2023-06-22T06:28:35;19.45;;;7.07;;
16965;SDS011;8599;47.852;12.070;2023-06-22T06:31:02;9.13;;;5.78;;
16965;SDS011;8599;47.852;12.070;2023-06-22T06:33:32;13.52;;;7.00;;
16965;SDS011;8599;47.852;12.070;2023-06-22T06:35:58;15.55;;;5.90;;
16965;SDS011;8599;47.852;12.070;2023-06-22T06:38:28;10.35;;;5.70;;
16965;SDS011;8599;47.852;12.070;2023-06-22T06:40:56;13.45;;;6.45;;
16965;SDS011;8599;47.852;12.070;2023-06-22T06:43:26;14.43;;;7.13;;
16965;SDS011;8599;47.852;12.070;2023-06-22T06:45:53;13.88;;;5.75;;
16965;SDS011;8599;47.852;12.070;2023-06-22T06:48:20;10.05;;;5.35;;
16965;SDS011;8599;47.852;12.070;2023-06-22T06:50:47;15.48;;;6.00;;
16965;SDS011;8599;47.852;12.070;2023-06-22T06:53:14;12.40;;;6.80;;
16965;SDS011;8599;47.852;12.070;2023-06-22T06:55:40;16.48;;;6.18;;
16965;SDS011;8599;47.852;12.070;2023-06-22T06:58:10;12.18;;;6.47;;
16965;SDS011;8599;47.852;12.070;2023-06-22T07:00:38;18.02;;;6.22;;
16965;SDS011;8599;47.852;12.070;2023-06-22T07:03:05;15.93;;;5.97;;
16965;SDS011;8599;47.852;12.070;2023-06-22T07:05:32;13.95;;;6.10;;
16965;SDS011;8599;47.852;12.070;2023-06-22T07:07:58;13.30;;;5.97;;
16965;SDS011;8599;47.852;12.070;2023-06-22T07:10:25;19.02;;;6.57;;
16965;SDS011;8599;47.852;12.070;2023-06-22T07:12:52;19.45;;;6.28;;
16965;SDS011;8599;47.852;12.070;2023-06-22T07:15:20;28.02;;;7.13;;
16965;SDS011;8599;47.852;12.070;2023-06-22T07:17:47;16.75;;;5.95;;
16965;SDS011;8599;47.852;12.070;2023-06-22T07:20:14;17.98;;;6.18;;
16965;SDS011;8599;47.852;12.070;2023-06-22T07:22:43;19.63;;;6.97;;
16965;SDS011;8599;47.852;12.070;2023-06-22T07:25:10;15.05;;;5.85;;
16965;SDS011;8599;47.852;12.070;2023-06-22T07:27:42;14.60;;;6.43;;
16965;SDS011;8599;47.852;12.070;2023-06-22T07:30:11;18.48;;;6.88;;
16965;SDS011;8599;47.852;12.070;2023-06-22T07:32:39;13.23;;;5.72;;
16965;SDS011;8599;47.852;12.070;2023-06-22T07:35:07;11.20;;;6.05;;
16965;SDS011;8599;47.852;12.070;2023-06-22T07:37:34;19.23;;;6.00;;
16965;SDS011;8599;47.852;12.070;2023-06-22T07:40:01;14.77;;;5.57;;
16965;SDS011;8599;47.852;12.070;2023-06-22T07:42:31;17.42;;;6.22;;
16965;SDS011;8599;47.852;12.070;2023-06-22T07:44:58;17.67;;;6.45;;
16965;SDS011;8599;47.852;12.070;2023-06-22T07:47:25;9.80;;;5.50;;
16965;SDS011;8599;47.852;12.070;2023-06-22T07:49:54;17.15;;;6.95;;
16965;SDS011;8599;47.852;12.070;2023-06-22T07:52:23;11.45;;;5.68;;
16965;SDS011;8599;47.852;12.070;2023-06-22T07:54:50;13.32;;;6.25;;
16965;SDS011;8599;47.852;12.070;2023-06-22T07:57:17;20.48;;;6.18;;
16965;SDS011;8599;47.852;12.070;2023-06-22T07:59:44;12.88;;;6.18;;
16965;SDS011;8599;47.852;12.070;2023-06-22T08:02:11;12.27;;;6.60;;
16965;SDS011;8599;47.852;12.070;2023-06-22T08:04:38;12.05;;;6.00;;
16965;SDS011;8599;47.852;12.070;2023-06-22T08:07:07;20.52;;;7.68;;
16965;SDS011;8599;47.852;12.070;2023-06-22T08:09:34;10.38;;;6.78;;
16965;SDS011;8599;47.852;12.070;2023-06-22T08:12:02;10.45;;;6.18;;
16965;SDS011;8599;47.852;12.070;2023-06-22T08:14:29;11.10;;;6.25;;
16965;SDS011;8599;47.852;12.070;2023-06-22T08:16:56;10.70;;;6.72;;
16965;SDS011;8599;47.852;12.070;2023-06-22T08:19:23;14.88;;;6.47;;
16965;SDS011;8599;47.852;12.070;2023-06-22T08:21:49;12.93;;;6.50;;
16965;SDS011;8599;47.852;12.070;2023-06-22T08:24:18;13.90;;;6.70;;
16965;SDS011;8599;47.852;12.070;2023-06-22T08:26:44;13.55;;;6.15;;
16965;SDS011;8599;47.852;12.070;2023-06-22T08:29:11;14.07;;;6.53;;
16965;SDS011;8599;47.852;12.070;2023-06-22T08:31:39;12.07;;;6.25;;
16965;SDS011;8599;47.852;12.070;2023-06-22T08:34:06;12.50;;;6.55;;
16965;SDS011;8599;47.852;12.070;2023-06-22T08:36:33;14.10;;;6.68;;
16965;SDS011;8599;47.852;12.070;2023-06-22T08:39:06;13.57;;;6.35;;
16965;SDS011;8599;47.852;12.070;2023-06-22T08:41:34;13.52;;;6.82;;
16965;SDS011;8599;47.852;12.070;2023-06-22T08:44:01;16.55;;;6.60;;
16965;SDS011;8599;47.852;12.070;2023-06-22T08:46:29;15.80;;;6.63;;
16965;SDS011;8599;47.852;12.070;2023-06-22T08:48:58;14.57;;;6.82;;
16965;SDS011;8599;47.852;12.070;2023-06-22T08:51:26;11.25;;;6.40;;
16965;SDS011;8599;47.852;12.070;2023-06-22T08:53:53;9.95;;;5.65;;
16965;SDS011;8599;47.852;12.070;2023-06-22T08:56:20;12.85;;;7.20;;
16965;SDS011;8599;47.852;12.070;2023-06-22T08:58:48;16.10;;;6.93;;
16965;SDS011;8599;47.852;12.070;2023-06-22T09:01:15;15.20;;;6.57;;
16965;SDS011;8599;47.852;12.070;2023-06-22T09:03:42;22.95;;;7.18;;
16965;SDS011;8599;47.852;12.070;2023-06-22T09:06:09;19.52;;;7.50;;
16965;SDS011;8599;47.852;12.070;2023-06-22T09:08:35;11.30;;;6.88;;
16965;SDS011;8599;47.852;12.070;2023-06-22T09:11:02;16.48;;;6.28;;
16965;SDS011;8599;47.852;12.070;2023-06-22T09:13:30;12.65;;;6.22;;
16965;SDS011;8599;47.852;12.070;2023-06-22T09:15:58;16.75;;;6.97;;
16965;SDS011;8599;47.852;12.070;2023-06-22T09:18:25;17.73;;;7.13;;
16965;SDS011;8599;47.852;12.070;2023-06-22T09:20:54;20.02;;;6.45;;
16965;SDS011;8599;47.852;12.070;2023-06-22T09:23:21;16.95;;;6.28;;
16965;SDS011;8599;47.852;12.070;2023-06-22T09:25:48;16.83;;;6.18;;
16965;SDS011;8599;47.852;12.070;2023-06-22T09:28:15;15.52;;;6.53;;
16965;SDS011;8599;47.852;12.070;2023-06-22T09:30:42;15.35;;;7.13;;
16965;SDS011;8599;47.852;12.070;2023-06-22T09:33:11;14.50;;;6.70;;
16965;SDS011;8599;47.852;12.070;2023-06-22T09:35:37;12.98;;;6.10;;
16965;SDS011;8599;47.852;12.070;2023-06-22T09:38:04;11.95;;;6.60;;
16965;SDS011;8599;47.852;12.070;2023-06-22T09:40:31;13.48;;;5.97;;
16965;SDS011;8599;47.852;12.070;2023-06-22T09:43:00;10.07;;;6.25;;
16965;SDS011;8599;47.852;12.070;2023-06-22T09:45:27;16.80;;;6.22;;
16965;SDS011;8599;47.852;12.070;2023-06-22T09:47:54;17.58;;;6.05;;
16965;SDS011;8599;47.852;12.070;2023-06-22T09:50:22;14.23;;;6.18;;
16965;SDS011;8599;47.852;12.070;2023-06-22T09:52:49;14.13;;;7.05;;
16965;SDS011;8599;47.852;12.070;2023-06-22T09:55:19;13.43;;;6.57;;
16965;SDS011;8599;47.852;12.070;2023-06-22T09:57:46;13.32;;;5.97;;
16965;SDS011;8599;47.852;12.070;2023-06-22T10:00:15;9.45;;;5.22;;
16965;SDS011;8599;47.852;12.070;2023-06-22T10:02:44;15.88;;;5.55;;
16965;SDS011;8599;47.852;12.070;2023-06-22T10:05:12;10.95;;;5.60;;
16965;SDS011;8599;47.852;12.070;2023-06-22T10:07:41;16.05;;;5.80;;
16965;SDS011;8599;47.852;12.070;2023-06-22T10:10:09;12.82;;;6.38;;
16965;SDS011;8599;47.852;12.070;2023-06-22T10:12:36;13.95;;;5.93;;
16965;SDS011;8599;47.852;12.070;2023-06-22T10:15:07;20.30;;;5.45;;
16965;SDS011;8599;47.852;12.070;2023-06-22T10:17:34;12.75;;;5.50;;
16965;SDS011;8599;47.852;12.070;2023-06-22T10:20:01;14.60;;;7.00;;
16965;SDS011;8599;47.852;12.070;2023-06-22T10:22:36;19.45;;;5.93;;
16965;SDS011;8599;47.852;12.070;2023-06-22T10:25:05;14.75;;;6.47;;
16965;SDS011;8599;47.852;12.070;2023-06-22T10:27:32;19.42;;;5.95;;
16965;SDS011;8599;47.852;12.070;2023-06-22T10:29:59;16.48;;;5.35;;
16965;SDS011;8599;47.852;12.070;2023-06-22T10:32:26;15.60;;;5.93;;
16965;SDS011;8599;47.852;12.070;2023-06-22T10:34:54;15.73;;;5.70;;
16965;SDS011;8599;47.852;12.070;2023-06-22T10:37:21;14.10;;;5.80;;
16965;SDS011;8599;47.852;12.070;2023-06-22T10:39:48;11.10;;;5.25;;
16965;SDS011;8599;47.852;12.070;2023-06-22T10:42:16;15.55;;;5.18;;
16965;SDS011;8599;47.852;12.070;2023-06-22T10:44:43;20.50;;;5.88;;
16965;SDS011;8599;47.852;12.070;2023-06-22T10:47:10;16.15;;;5.18;;
16965;SDS011;8599;47.852;12.070;2023-06-22T10:49:37;10.80;;;4.72;;
16965;SDS011;8599;47.852;12.070;2023-06-22T10:52:05;16.90;;;5.68;;
16965;SDS011;8599;47.852;12.070;2023-06-22T10:54:32;10.13;;;4.90;;
16965;SDS011;8599;47.852;12.070;2023-06-22T10:56:59;10.27;;;4.65;;
16965;SDS011;8599;47.852;12.070;2023-06-22T10:59:28;14.13;;;5.53;;
16965;SDS011;8599;47.852;12.070;2023-06-22T11:01:54;12.15;;;4.75;;
16965;SDS011;8599;47.852;12.070;2023-06-22T11:04:22;15.43;;;5.75;;
16965;SDS011;8599;47.852;12.070;2023-06-22T11:06:49;14.80;;;5.25;;
16965;SDS011;8599;47.852;12.070;2023-06-22T11:09:16;17.00;;;5.57;;
16965;SDS011;8599;47.852;12.070;2023-06-22T11:11:46;15.85;;;5.43;;
16965;SDS011;8599;47.852;12.070;2023-06-22T11:14:13;21.35;;;6.57;;
16965;SDS011;8599;47.852;12.070;2023-06-22T11:16:41;17.85;;;5.55;;
16965;SDS011;8599;47.852;12.070;2023-06-22T11:19:08;15.75;;;5.40;;
16965;SDS011;8599;47.852;12.070;2023-06-22T11:21:34;18.00;;;5.57;;
16965;SDS011;8599;47.852;12.070;2023-06-22T11:24:02;13.27;;;5.57;;
16965;SDS011;8599;47.852;12.070;2023-06-22T11:26:29;18.75;;;5.63;;
16965;SDS011;8599;47.852;12.070;2023-06-22T11:28:56;18.52;;;5.28;;
16965;SDS011;8599;47.852;12.070;2023-06-22T11:31:24;14.98;;;5.70;;
16965;SDS011;8599;47.852;12.070;2023-06-22T11:33:52;11.57;;;5.93;;
16965;SDS011;8599;47.852;12.070;2023-06-22T11:36:19;16.73;;;5.68;;
16965;SDS011;8599;47.852;12.070;2023-06-22T11:38:46;14.35;;;5.25;;
16965;SDS011;8599;47.852;12.070;2023-06-22T11:41:13;16.90;;;5.15;;
16965;SDS011;8599;47.852;12.070;2023-06-22T11:43:40;14.40;;;5.85;;
16965;SDS011;8599;47.852;12.070;2023-06-22T11:46:07;12.45;;;4.45;;
16965;SDS011;8599;47.852;12.070;2023-06-22T11:48:34;10.57;;;4.85;;
16965;SDS011;8599;47.852;12.070;2023-06-22T11:51:02;8.80;;;4.32;;
16965;SDS011;8599;47.852;12.070;2023-06-22T11:53:31;15.40;;;4.40;;
16965;SDS011;8599;47.852;12.070;2023-06-22T11:55:59;15.95;;;5.32;;
16965;SDS011;8599;47.852;12.070;2023-06-22T11:58:26;15.05;;;4.32;;
16965;SDS011;8599;47.852;12.070;2023-06-22T12:00:53;14.60;;;5.20;;
16965;SDS011;8599;47.852;12.070;2023-06-22T12:03:20;19.80;;;5.57;;
16965;SDS011;8599;47.852;12.070;2023-06-22T12:05:47;16.98;;;4.80;;
16965;SDS011;8599;47.852;12.070;2023-06-22T12:08:15;13.88;;;4.57;;
16965;SDS011;8599;47.852;12.070;2023-06-22T12:10:42;16.75;;;5.05;;
16965;SDS011;8599;47.852;12.070;2023-06-22T12:13:09;12.07;;;4.45;;
16965;SDS011;8599;47.852;12.070;2023-06-22T12:15:36;14.80;;;4.90;;
16965;SDS011;8599;47.852;12.070;2023-06-22T12:18:03;13.13;;;4.90;;
16965;SDS011;8599;47.852;12.070;2023-06-22T12:20:29;14.88;;;4.88;;
16965;SDS011;8599;47.852;12.070;2023-06-22T12:22:57;10.90;;;4.55;;
16965;SDS011;8599;47.852;12.070;2023-06-22T12:25:25;12.90;;;4.57;;
16965;SDS011;8599;47.852;12.070;2023-06-22T12:27:52;18.00;;;4.82;;
16965;SDS011;8599;47.852;12.070;2023-06-22T12:30:19;16.10;;;4.95;;
16965;SDS011;8599;47.852;12.070;2023-06-22T12:32:45;12.65;;;5.00;;
16965;SDS011;8599;47.852;12.070;2023-06-22T12:35:12;12.90;;;5.32;;
16965;SDS011;8599;47.852;12.070;2023-06-22T12:37:40;11.82;;;4.38;;
16965;SDS011;8599;47.852;12.070;2023-06-22T12:40:07;12.32;;;4.30;;
16965;SDS011;8599;47.852;12.070;2023-06-22T12:42:36;8.95;;;4.40;;
16965;SDS011;8599;47.852;12.070;2023-06-22T12:45:03;11.10;;;4.35;;
16965;SDS011;8599;47.852;12.070;2023-06-22T12:47:31;11.23;;;4.65;;
16965;SDS011;8599;47.852;12.070;2023-06-22T12:49:58;12.18;;;4.70;;
16965;SDS011;8599;47.852;12.070;2023-06-22T12:52:25;16.27;;;5.15;;
16965;SDS011;8599;47.852;12.070;2023-06-22T12:54:52;15.60;;;5.20;;
16965;SDS011;8599;47.852;12.070;2023-06-22T12:57:19;19.25;;;5.03;;
16965;SDS011;8599;47.852;12.070;2023-06-22T12:59:47;24.80;;;5.25;;
16965;SDS011;8599;47.852;12.070;2023-06-22T13:02:14;16.45;;;5.50;;
16965;SDS011;8599;47.852;12.070;2023-06-22T13:04:41;17.77;;;5.05;;
16965;SDS011;8599;47.852;12.070;2023-06-22T13:07:08;7.38;;;4.07;;
16965;SDS011;8599;47.852;12.070;2023-06-22T13:09:35;20.50;;;5.20;;
16965;SDS011;8599;47.852;12.070;2023-06-22T13:12:03;11.63;;;4.78;;
16965;SDS011;8599;47.852;12.070;2023-06-22T13:14:30;18.20;;;4.95;;
16965;SDS011;8599;47.852;12.070;2023-06-22T13:16:58;16.42;;;5.07;;
16965;SDS011;8599;47.852;12.070;2023-06-22T13:19:25;16.48;;;5.07;;
16965;SDS011;8599;47.852;12.070;2023-06-22T13:21:53;14.43;;;5.53;;
16965;SDS011;8599;47.852;12.070;2023-06-22T13:24:20;9.93;;;4.72;;
16965;SDS011;8599;47.852;12.070;2023-06-22T13:26:47;11.70;;;4.28;;
16965;SDS011;8599;47.852;12.070;2023-06-22T13:29:14;17.02;;;4.75;;
16965;SDS011;8599;47.852;12.070;2023-06-22T13:31:41;15.68;;;4.90;;
16965;SDS011;8599;47.852;12.070;2023-06-22T13:34:09;15.98;;;4.53;;
16965;SDS011;8599;47.852;12.070;2023-06-22T13:36:36;10.07;;;4.43;;
16965;SDS011;8599;47.852;12.070;2023-06-22T13:39:03;19.67;;;5.00;;
16965;SDS011;8599;47.852;12.070;2023-06-22T13:41:30;18.42;;;5.25;;
16965;SDS011;8599;47.852;12.070;2023-06-22T13:43:57;13.95;;;4.53;;
16965;SDS011;8599;47.852;12.070;2023-06-22T13:46:24;13.75;;;4.85;;
16965;SDS011;8599;47.852;12.070;2023-06-22T13:48:50;18.60;;;4.75;;
16965;SDS011;8599;47.852;12.070;2023-06-22T13:51:18;18.45;;;4.50;;
16965;SDS011;8599;47.852;12.070;2023-06-22T13:53:45;13.50;;;5.43;;
16965;SDS011;8599;47.852;12.070;2023-06-22T13:56:12;10.18;;;4.57;;
16965;SDS011;8599;47.852;12.070;2023-06-22T13:58:39;13.15;;;4.38;;
16965;SDS011;8599;47.852;12.070;2023-06-22T14:01:06;21.70;;;5.05;;
16965;SDS011;8599;47.852;12.070;2023-06-22T14:03:32;18.58;;;4.63;;
16965;SDS011;8599;47.852;12.070;2023-06-22T14:05:59;12.30;;;4.88;;
16965;SDS011;8599;47.852;12.070;2023-06-22T14:08:27;15.30;;;4.25;;
16965;SDS011;8599;47.852;12.070;2023-06-22T14:10:54;17.60;;;4.68;;
16965;SDS011;8599;47.852;12.070;2023-06-22T14:13:21;12.75;;;5.63;;
16965;SDS011;8599;47.852;12.070;2023-06-22T14:15:48;11.45;;;4.85;;
16965;SDS011;8599;47.852;12.070;2023-06-22T14:18:16;13.90;;;5.32;;
16965;SDS011;8599;47.852;12.070;2023-06-22T14:20:43;12.18;;;5.22;;
16965;SDS011;8599;47.852;12.070;2023-06-22T14:23:11;16.40;;;4.55;;
16965;SDS011;8599;47.852;12.070;2023-06-22T14:25:40;16.73;;;5.43;;
16965;SDS011;8599;47.852;12.070;2023-06-22T14:28:06;12.70;;;4.53;;
16965;SDS011;8599;47.852;12.070;2023-06-22T14:30:33;13.35;;;5.65;;
16965;SDS011;8599;47.852;12.070;2023-06-22T14:33:00;15.88;;;5.18;;
16965;SDS011;8599;47.852;12.070;2023-06-22T14:35:27;12.25;;;4.85;;
16965;SDS011;8599;47.852;12.070;2023-06-22T14:37:54;11.50;;;5.03;;